sensor_id;sensor_type;location;lat;lon;timestamp;temperature;humidity
32865;DHT22;19219;44.500;11.188;2024-01-11T00:01:47;4.70;99.90
32865;DHT22;19219;44.500;11.188;2024-01-11T00:04:13;4.70;99.90
32865;DHT22;19219;44.500;11.188;2024-01-11T00:06:42;4.70;99.90
32865;DHT22;19219;44.500;11.188;2024-01-11T00:09:11;4.70;99.90
32865;DHT22;19219;44.500;11.188;2024-01-11T00:11:37;4.70;99.90
32865;DHT22;19219;44.500;11.188;2024-01-11T00:14:02;4.70;99.90
32865;DHT22;19219;44.500;11.188;2024-01-11T00:16:28;4.70;99.90
32865;DHT22;19219;44.500;11.188;2024-01-11T00:18:54;4.70;99.90
32865;DHT22;19219;44.500;11.188;2024-01-11T00:21:19;4.70;99.90
32865;DHT22;19219;44.500;11.188;2024-01-11T00:23:45;4.70;99.90
32865;DHT22;19219;44.500;11.188;2024-01-11T00:26:14;4.70;99.90
32865;DHT22;19219;44.500;11.188;2024-01-11T00:28:40;4.70;99.90
32865;DHT22;19219;44.500;11.188;2024-01-11T00:31:05;4.70;99.90
32865;DHT22;19219;44.500;11.188;2024-01-11T00:33:31;4.70;99.90
32865;DHT22;19219;44.500;11.188;2024-01-11T00:35:57;4.70;99.90
32865;DHT22;19219;44.500;11.188;2024-01-11T00:38:23;4.70;99.90
32865;DHT22;19219;44.500;11.188;2024-01-11T00:40:49;4.70;99.90
32865;DHT22;19219;44.500;11.188;2024-01-11T00:43:14;4.70;99.90
32865;DHT22;19219;44.500;11.188;2024-01-11T00:45:40;4.70;99.90
32865;DHT22;19219;44.500;11.188;2024-01-11T00:48:06;4.60;99.90
32865;DHT22;19219;44.500;11.188;2024-01-11T00:50:32;4.70;99.90
32865;DHT22;19219;44.500;11.188;2024-01-11T00:52:57;4.80;99.90
32865;DHT22;19219;44.500;11.188;2024-01-11T00:55:23;4.80;99.90
32865;DHT22;19219;44.500;11.188;2024-01-11T00:57:50;4.80;99.90
32865;DHT22;19219;44.500;11.188;2024-01-11T01:00:16;4.80;99.90
32865;DHT22;19219;44.500;11.188;2024-01-11T01:02:42;4.80;99.90
32865;DHT22;19219;44.500;11.188;2024-01-11T01:05:08;4.70;99.90
32865;DHT22;19219;44.500;11.188;2024-01-11T01:07:34;4.80;99.90
32865;DHT22;19219;44.500;11.188;2024-01-11T01:09:59;4.70;99.90
32865;DHT22;19219;44.500;11.188;2024-01-11T01:12:25;4.70;99.90
32865;DHT22;19219;44.500;11.188;2024-01-11T01:14:51;4.70;99.90
32865;DHT22;19219;44.500;11.188;2024-01-11T01:17:17;4.60;99.90
32865;DHT22;19219;44.500;11.188;2024-01-11T01:19:44;4.60;99.90
32865;DHT22;19219;44.500;11.188;2024-01-11T01:22:09;4.60;99.90
32865;DHT22;19219;44.500;11.188;2024-01-11T01:24:35;4.60;99.90
32865;DHT22;19219;44.500;11.188;2024-01-11T01:27:01;4.60;99.90
32865;DHT22;19219;44.500;11.188;2024-01-11T01:29:27;4.60;99.90
32865;DHT22;19219;44.500;11.188;2024-01-11T01:31:52;4.60;99.90
32865;DHT22;19219;44.500;11.188;2024-01-11T01:34:19;4.60;99.90
32865;DHT22;19219;44.500;11.188;2024-01-11T01:36:45;4.70;99.90
32865;DHT22;19219;44.500;11.188;2024-01-11T01:39:11;4.60;99.90
32865;DHT22;19219;44.500;11.188;2024-01-11T01:41:37;4.70;99.90
32865;DHT22;19219;44.500;11.188;2024-01-11T01:44:02;4.70;99.90
32865;DHT22;19219;44.500;11.188;2024-01-11T01:46:28;4.60;99.90
32865;DHT22;19219;44.500;11.188;2024-01-11T01:48:56;4.70;99.90
32865;DHT22;19219;44.500;11.188;2024-01-11T01:51:23;4.70;99.90
32865;DHT22;19219;44.500;11.188;2024-01-11T01:53:51;4.70;99.90
32865;DHT22;19219;44.500;11.188;2024-01-11T01:56:19;4.60;99.90
32865;DHT22;19219;44.500;11.188;2024-01-11T01:58:45;4.60;99.90
32865;DHT22;19219;44.500;11.188;2024-01-11T02:01:11;4.60;99.90
32865;DHT22;19219;44.500;11.188;2024-01-11T02:03:37;4.60;99.90
32865;DHT22;19219;44.500;11.188;2024-01-11T02:06:05;4.70;99.90
32865;DHT22;19219;44.500;11.188;2024-01-11T02:08:32;4.70;99.90
32865;DHT22;19219;44.500;11.188;2024-01-11T02:10:59;4.70;99.90
32865;DHT22;19219;44.500;11.188;2024-01-11T02:13:25;4.70;99.90
32865;DHT22;19219;44.500;11.188;2024-01-11T02:15:51;4.70;99.90
32865;DHT22;19219;44.500;11.188;2024-01-11T02:18:17;4.80;99.90
32865;DHT22;19219;44.500;11.188;2024-01-11T02:20:43;4.70;99.90
32865;DHT22;19219;44.500;11.188;2024-01-11T02:23:14;4.80;99.90
32865;DHT22;19219;44.500;11.188;2024-01-11T02:25:42;4.70;99.90
32865;DHT22;19219;44.500;11.188;2024-01-11T02:28:07;4.70;99.90
32865;DHT22;19219;44.500;11.188;2024-01-11T02:30:34;4.70;99.90
32865;DHT22;19219;44.500;11.188;2024-01-11T02:32:59;4.70;99.90
32865;DHT22;19219;44.500;11.188;2024-01-11T02:35:27;4.60;99.90
32865;DHT22;19219;44.500;11.188;2024-01-11T02:37:53;4.60;99.90
32865;DHT22;19219;44.500;11.188;2024-01-11T02:40:19;4.60;99.90
32865;DHT22;19219;44.500;11.188;2024-01-11T02:42:45;4.50;99.90
32865;DHT22;19219;44.500;11.188;2024-01-11T02:45:11;4.50;99.90
32865;DHT22;19219;44.500;11.188;2024-01-11T02:47:40;4.60;99.90
32865;DHT22;19219;44.500;11.188;2024-01-11T02:50:07;4.50;99.90
32865;DHT22;19219;44.500;11.188;2024-01-11T02:52:33;4.50;99.90
32865;DHT22;19219;44.500;11.188;2024-01-11T02:54:59;4.50;99.90
32865;DHT22;19219;44.500;11.188;2024-01-11T02:57:25;4.50;99.90
32865;DHT22;19219;44.500;11.188;2024-01-11T02:59:51;4.50;99.90
32865;DHT22;19219;44.500;11.188;2024-01-11T03:02:17;4.50;99.90
32865;DHT22;19219;44.500;11.188;2024-01-11T03:04:43;4.50;99.90
32865;DHT22;19219;44.500;11.188;2024-01-11T03:07:08;4.50;99.90
32865;DHT22;19219;44.500;11.188;2024-01-11T03:09:34;4.60;99.90
32865;DHT22;19219;44.500;11.188;2024-01-11T03:12:00;4.50;99.90
32865;DHT22;19219;44.500;11.188;2024-01-11T03:14:26;4.40;99.90
32865;DHT22;19219;44.500;11.188;2024-01-11T03:16:51;4.40;99.90
32865;DHT22;19219;44.500;11.188;2024-01-11T03:19:17;4.30;99.90
32865;DHT22;19219;44.500;11.188;2024-01-11T03:21:46;4.30;99.90
32865;DHT22;19219;44.500;11.188;2024-01-11T03:24:12;4.30;99.90
32865;DHT22;19219;44.500;11.188;2024-01-11T03:26:38;4.20;99.90
32865;DHT22;19219;44.500;11.188;2024-01-11T03:29:04;4.30;99.90
32865;DHT22;19219;44.500;11.188;2024-01-11T03:31:29;4.30;99.90
32865;DHT22;19219;44.500;11.188;2024-01-11T03:33:55;4.30;99.90
32865;DHT22;19219;44.500;11.188;2024-01-11T03:36:24;4.20;99.90
32865;DHT22;19219;44.500;11.188;2024-01-11T03:38:50;4.20;99.90
32865;DHT22;19219;44.500;11.188;2024-01-11T03:41:16;4.20;99.90
32865;DHT22;19219;44.500;11.188;2024-01-11T03:43:42;4.20;99.90
32865;DHT22;19219;44.500;11.188;2024-01-11T03:46:07;4.20;99.90
32865;DHT22;19219;44.500;11.188;2024-01-11T03:48:33;4.20;99.90
32865;DHT22;19219;44.500;11.188;2024-01-11T03:51:01;4.20;99.90
32865;DHT22;19219;44.500;11.188;2024-01-11T03:53:27;4.20;99.90
32865;DHT22;19219;44.500;11.188;2024-01-11T03:55:52;4.10;99.90
32865;DHT22;19219;44.500;11.188;2024-01-11T03:58:18;4.20;99.90
32865;DHT22;19219;44.500;11.188;2024-01-11T04:00:44;4.20;99.90
32865;DHT22;19219;44.500;11.188;2024-01-11T04:03:09;4.20;99.90
32865;DHT22;19219;44.500;11.188;2024-01-11T04:05:35;4.20;99.90
32865;DHT22;19219;44.500;11.188;2024-01-11T04:08:06;4.20;99.90
32865;DHT22;19219;44.500;11.188;2024-01-11T04:10:32;4.20;99.90
32865;DHT22;19219;44.500;11.188;2024-01-11T04:12:58;4.20;99.90
32865;DHT22;19219;44.500;11.188;2024-01-11T04:15:24;4.10;99.90
32865;DHT22;19219;44.500;11.188;2024-01-11T04:17:49;4.10;99.90
32865;DHT22;19219;44.500;11.188;2024-01-11T04:20:15;4.00;99.90
32865;DHT22;19219;44.500;11.188;2024-01-11T04:22:41;4.10;99.90
32865;DHT22;19219;44.500;11.188;2024-01-11T04:25:07;4.10;99.90
32865;DHT22;19219;44.500;11.188;2024-01-11T04:27:32;4.00;99.90
32865;DHT22;19219;44.500;11.188;2024-01-11T04:29:58;4.00;99.90
32865;DHT22;19219;44.500;11.188;2024-01-11T04:32:24;4.00;99.90
32865;DHT22;19219;44.500;11.188;2024-01-11T04:34:49;4.00;99.90
32865;DHT22;19219;44.500;11.188;2024-01-11T04:37:15;3.90;99.90
32865;DHT22;19219;44.500;11.188;2024-01-11T04:39:41;3.90;99.90
32865;DHT22;19219;44.500;11.188;2024-01-11T04:42:06;3.90;99.90
32865;DHT22;19219;44.500;11.188;2024-01-11T04:44:32;3.90;99.90
32865;DHT22;19219;44.500;11.188;2024-01-11T04:46:58;3.80;99.90
32865;DHT22;19219;44.500;11.188;2024-01-11T04:49:23;3.90;99.90
32865;DHT22;19219;44.500;11.188;2024-01-11T04:51:49;3.90;99.90
32865;DHT22;19219;44.500;11.188;2024-01-11T04:54:15;3.90;99.90
32865;DHT22;19219;44.500;11.188;2024-01-11T04:56:41;3.90;99.90
32865;DHT22;19219;44.500;11.188;2024-01-11T04:59:07;4.00;99.90
32865;DHT22;19219;44.500;11.188;2024-01-11T05:01:32;4.00;99.90
32865;DHT22;19219;44.500;11.188;2024-01-11T05:03:58;4.00;99.90
32865;DHT22;19219;44.500;11.188;2024-01-11T05:06:23;4.00;99.90
32865;DHT22;19219;44.500;11.188;2024-01-11T05:08:51;4.00;99.90
32865;DHT22;19219;44.500;11.188;2024-01-11T05:11:22;4.10;99.90
32865;DHT22;19219;44.500;11.188;2024-01-11T05:13:49;4.00;99.90
32865;DHT22;19219;44.500;11.188;2024-01-11T05:16:23;4.00;99.90
32865;DHT22;19219;44.500;11.188;2024-01-11T05:18:49;4.00;99.90
32865;DHT22;19219;44.500;11.188;2024-01-11T05:21:15;4.10;99.90
32865;DHT22;19219;44.500;11.188;2024-01-11T05:23:41;4.10;99.90
32865;DHT22;19219;44.500;11.188;2024-01-11T05:26:08;4.20;99.90
32865;DHT22;19219;44.500;11.188;2024-01-11T05:28:34;4.10;99.90
32865;DHT22;19219;44.500;11.188;2024-01-11T05:31:00;4.20;99.90
32865;DHT22;19219;44.500;11.188;2024-01-11T05:33:26;4.20;99.90
32865;DHT22;19219;44.500;11.188;2024-01-11T05:35:51;4.20;99.90
32865;DHT22;19219;44.500;11.188;2024-01-11T05:38:19;4.20;99.90
32865;DHT22;19219;44.500;11.188;2024-01-11T05:40:45;4.20;99.90
32865;DHT22;19219;44.500;11.188;2024-01-11T05:43:11;4.20;99.90
32865;DHT22;19219;44.500;11.188;2024-01-11T05:45:36;4.20;99.90
32865;DHT22;19219;44.500;11.188;2024-01-11T05:48:02;4.20;99.90
32865;DHT22;19219;44.500;11.188;2024-01-11T05:50:28;4.20;99.90
32865;DHT22;19219;44.500;11.188;2024-01-11T05:52:54;4.10;99.90
32865;DHT22;19219;44.500;11.188;2024-01-11T05:55:22;4.10;99.90
32865;DHT22;19219;44.500;11.188;2024-01-11T05:57:48;4.10;99.90
32865;DHT22;19219;44.500;11.188;2024-01-11T06:00:14;4.20;99.90
32865;DHT22;19219;44.500;11.188;2024-01-11T06:02:39;4.20;99.90
32865;DHT22;19219;44.500;11.188;2024-01-11T06:05:08;4.20;99.90
32865;DHT22;19219;44.500;11.188;2024-01-11T06:07:35;4.20;99.90
32865;DHT22;19219;44.500;11.188;2024-01-11T06:10:00;4.10;99.90
32865;DHT22;19219;44.500;11.188;2024-01-11T06:12:30;4.00;99.90
32865;DHT22;19219;44.500;11.188;2024-01-11T06:14:56;4.10;99.90
32865;DHT22;19219;44.500;11.188;2024-01-11T06:17:23;4.00;99.90
32865;DHT22;19219;44.500;11.188;2024-01-11T06:19:49;3.90;99.90
32865;DHT22;19219;44.500;11.188;2024-01-11T06:22:15;4.00;99.90
32865;DHT22;19219;44.500;11.188;2024-01-11T06:24:41;4.00;99.90
32865;DHT22;19219;44.500;11.188;2024-01-11T06:27:06;4.10;99.90
32865;DHT22;19219;44.500;11.188;2024-01-11T06:29:32;4.10;99.90
32865;DHT22;19219;44.500;11.188;2024-01-11T06:31:58;4.10;99.90
32865;DHT22;19219;44.500;11.188;2024-01-11T06:34:23;4.00;99.90
32865;DHT22;19219;44.500;11.188;2024-01-11T06:36:49;4.00;99.90
32865;DHT22;19219;44.500;11.188;2024-01-11T06:39:15;3.90;99.90
32865;DHT22;19219;44.500;11.188;2024-01-11T06:41:40;4.00;99.90
32865;DHT22;19219;44.500;11.188;2024-01-11T06:44:06;4.00;99.90
32865;DHT22;19219;44.500;11.188;2024-01-11T06:46:32;3.90;99.90
32865;DHT22;19219;44.500;11.188;2024-01-11T06:48:57;3.90;99.90
32865;DHT22;19219;44.500;11.188;2024-01-11T06:51:23;3.80;99.90
32865;DHT22;19219;44.500;11.188;2024-01-11T06:53:49;3.80;99.90
32865;DHT22;19219;44.500;11.188;2024-01-11T06:56:16;3.90;99.90
32865;DHT22;19219;44.500;11.188;2024-01-11T06:58:43;3.80;99.90
32865;DHT22;19219;44.500;11.188;2024-01-11T07:01:10;3.80;99.90
32865;DHT22;19219;44.500;11.188;2024-01-11T07:03:36;3.90;99.90
32865;DHT22;19219;44.500;11.188;2024-01-11T07:06:01;3.90;99.90
32865;DHT22;19219;44.500;11.188;2024-01-11T07:08:28;3.90;99.90
32865;DHT22;19219;44.500;11.188;2024-01-11T07:10:54;4.00;99.90
32865;DHT22;19219;44.500;11.188;2024-01-11T07:13:19;4.00;99.90
32865;DHT22;19219;44.500;11.188;2024-01-11T07:15:45;4.10;99.90
32865;DHT22;19219;44.500;11.188;2024-01-11T07:18:11;4.00;99.90
32865;DHT22;19219;44.500;11.188;2024-01-11T07:20:37;4.00;99.90
32865;DHT22;19219;44.500;11.188;2024-01-11T07:23:02;4.10;99.90
32865;DHT22;19219;44.500;11.188;2024-01-11T07:25:28;4.00;99.90
32865;DHT22;19219;44.500;11.188;2024-01-11T07:27:54;4.00;99.90
32865;DHT22;19219;44.500;11.188;2024-01-11T07:30:19;4.00;99.90
32865;DHT22;19219;44.500;11.188;2024-01-11T07:32:45;4.10;99.90
32865;DHT22;19219;44.500;11.188;2024-01-11T07:35:11;4.10;99.90
32865;DHT22;19219;44.500;11.188;2024-01-11T07:37:38;4.10;99.90
32865;DHT22;19219;44.500;11.188;2024-01-11T07:40:05;4.20;99.90
32865;DHT22;19219;44.500;11.188;2024-01-11T07:42:39;4.30;99.90
32865;DHT22;19219;44.500;11.188;2024-01-11T07:45:06;4.40;99.90
32865;DHT22;19219;44.500;11.188;2024-01-11T07:47:32;4.50;99.90
32865;DHT22;19219;44.500;11.188;2024-01-11T07:49:58;4.40;99.90
32865;DHT22;19219;44.500;11.188;2024-01-11T07:52:24;4.50;99.90
32865;DHT22;19219;44.500;11.188;2024-01-11T07:54:49;4.60;99.90
32865;DHT22;19219;44.500;11.188;2024-01-11T07:57:15;4.50;99.90
32865;DHT22;19219;44.500;11.188;2024-01-11T07:59:41;4.60;99.90
32865;DHT22;19219;44.500;11.188;2024-01-11T08:02:06;4.70;99.90
32865;DHT22;19219;44.500;11.188;2024-01-11T08:04:33;4.70;99.90
32865;DHT22;19219;44.500;11.188;2024-01-11T08:06:58;4.70;99.90
32865;DHT22;19219;44.500;11.188;2024-01-11T08:09:28;4.80;99.90
32865;DHT22;19219;44.500;11.188;2024-01-11T08:11:54;4.90;99.90
32865;DHT22;19219;44.500;11.188;2024-01-11T08:14:23;4.90;99.90
32865;DHT22;19219;44.500;11.188;2024-01-11T08:16:49;5.00;99.90
32865;DHT22;19219;44.500;11.188;2024-01-11T08:19:15;5.00;99.90
32865;DHT22;19219;44.500;11.188;2024-01-11T08:21:42;5.10;99.90
32865;DHT22;19219;44.500;11.188;2024-01-11T08:24:08;5.20;99.90
32865;DHT22;19219;44.500;11.188;2024-01-11T08:26:34;5.20;99.90
32865;DHT22;19219;44.500;11.188;2024-01-11T08:28:59;5.30;99.90
32865;DHT22;19219;44.500;11.188;2024-01-11T08:31:25;5.20;99.90
32865;DHT22;19219;44.500;11.188;2024-01-11T08:33:51;5.30;99.90
32865;DHT22;19219;44.500;11.188;2024-01-11T08:36:17;5.50;99.90
32865;DHT22;19219;44.500;11.188;2024-01-11T08:38:42;5.50;99.90
32865;DHT22;19219;44.500;11.188;2024-01-11T08:41:08;5.80;99.90
32865;DHT22;19219;44.500;11.188;2024-01-11T08:43:34;6.00;99.90
32865;DHT22;19219;44.500;11.188;2024-01-11T08:46:00;6.30;99.90
32865;DHT22;19219;44.500;11.188;2024-01-11T08:48:27;6.50;99.90
32865;DHT22;19219;44.500;11.188;2024-01-11T08:50:53;7.30;99.90
32865;DHT22;19219;44.500;11.188;2024-01-11T08:53:19;8.30;99.90
32865;DHT22;19219;44.500;11.188;2024-01-11T08:55:45;9.40;99.90
32865;DHT22;19219;44.500;11.188;2024-01-11T08:58:11;10.20;99.90
32865;DHT22;19219;44.500;11.188;2024-01-11T09:00:37;11.50;99.90
32865;DHT22;19219;44.500;11.188;2024-01-11T09:03:03;11.50;99.50
32865;DHT22;19219;44.500;11.188;2024-01-11T09:05:29;11.70;98.40
32865;DHT22;19219;44.500;11.188;2024-01-11T09:07:55;12.20;97.60
32865;DHT22;19219;44.500;11.188;2024-01-11T09:10:21;12.90;94.50
32865;DHT22;19219;44.500;11.188;2024-01-11T09:12:46;13.00;93.30
32865;DHT22;19219;44.500;11.188;2024-01-11T09:15:12;13.70;91.10
32865;DHT22;19219;44.500;11.188;2024-01-11T09:17:38;14.30;88.80
32865;DHT22;19219;44.500;11.188;2024-01-11T09:20:04;14.20;84.40
32865;DHT22;19219;44.500;11.188;2024-01-11T09:22:30;13.90;83.20
32865;DHT22;19219;44.500;11.188;2024-01-11T09:24:56;13.60;84.00
32865;DHT22;19219;44.500;11.188;2024-01-11T09:27:21;13.70;82.50
32865;DHT22;19219;44.500;11.188;2024-01-11T09:29:48;13.10;80.40
32865;DHT22;19219;44.500;11.188;2024-01-11T09:32:13;12.80;82.00
32865;DHT22;19219;44.500;11.188;2024-01-11T09:34:39;12.10;82.40
32865;DHT22;19219;44.500;11.188;2024-01-11T09:37:05;11.70;83.90
32865;DHT22;19219;44.500;11.188;2024-01-11T09:39:31;11.80;85.40
32865;DHT22;19219;44.500;11.188;2024-01-11T09:42:06;10.90;84.70
32865;DHT22;19219;44.500;11.188;2024-01-11T09:44:33;10.30;85.10
32865;DHT22;19219;44.500;11.188;2024-01-11T09:47:00;9.70;88.50
32865;DHT22;19219;44.500;11.188;2024-01-11T09:49:28;9.70;89.90
32865;DHT22;19219;44.500;11.188;2024-01-11T09:51:55;9.30;90.20
32865;DHT22;19219;44.500;11.188;2024-01-11T09:54:25;9.20;91.00
32865;DHT22;19219;44.500;11.188;2024-01-11T09:56:53;8.90;91.90
32865;DHT22;19219;44.500;11.188;2024-01-11T09:59:20;8.50;92.80
32865;DHT22;19219;44.500;11.188;2024-01-11T10:01:49;8.60;93.30
32865;DHT22;19219;44.500;11.188;2024-01-11T10:04:16;8.60;93.80
32865;DHT22;19219;44.500;11.188;2024-01-11T10:06:43;8.40;94.20
32865;DHT22;19219;44.500;11.188;2024-01-11T10:09:09;8.50;94.60
32865;DHT22;19219;44.500;11.188;2024-01-11T10:11:36;8.60;94.50
32865;DHT22;19219;44.500;11.188;2024-01-11T10:14:02;8.70;94.80
32865;DHT22;19219;44.500;11.188;2024-01-11T10:16:28;8.70;95.00
32865;DHT22;19219;44.500;11.188;2024-01-11T10:18:55;8.80;94.70
32865;DHT22;19219;44.500;11.188;2024-01-11T10:21:21;9.10;93.90
32865;DHT22;19219;44.500;11.188;2024-01-11T10:23:47;9.50;94.00
32865;DHT22;19219;44.500;11.188;2024-01-11T10:26:17;9.80;91.70
32865;DHT22;19219;44.500;11.188;2024-01-11T10:28:45;10.00;91.00
32865;DHT22;19219;44.500;11.188;2024-01-11T10:31:11;10.20;91.20
32865;DHT22;19219;44.500;11.188;2024-01-11T10:33:37;11.10;90.10
32865;DHT22;19219;44.500;11.188;2024-01-11T10:36:03;11.80;87.10
32865;DHT22;19219;44.500;11.188;2024-01-11T10:38:35;12.80;84.50
32865;DHT22;19219;44.500;11.188;2024-01-11T10:41:04;13.80;81.40
32865;DHT22;19219;44.500;11.188;2024-01-11T10:43:32;15.00;77.10
32865;DHT22;19219;44.500;11.188;2024-01-11T10:46:00;15.70;71.30
32865;DHT22;19219;44.500;11.188;2024-01-11T10:48:30;16.10;67.80
32865;DHT22;19219;44.500;11.188;2024-01-11T10:51:01;15.80;67.30
32865;DHT22;19219;44.500;11.188;2024-01-11T10:56:06;16.50;63.50
32865;DHT22;19219;44.500;11.188;2024-01-11T10:58:35;16.10;61.50
32865;DHT22;19219;44.500;11.188;2024-01-11T11:01:02;15.40;62.80
32865;DHT22;19219;44.500;11.188;2024-01-11T11:03:30;15.20;62.70
32865;DHT22;19219;44.500;11.188;2024-01-11T11:06:00;15.60;63.10
32865;DHT22;19219;44.500;11.188;2024-01-11T11:08:27;14.60;62.80
32865;DHT22;19219;44.500;11.188;2024-01-11T11:10:57;13.70;64.20
32865;DHT22;19219;44.500;11.188;2024-01-11T11:13:23;12.90;65.20
32865;DHT22;19219;44.500;11.188;2024-01-11T11:15:49;12.20;70.60
32865;DHT22;19219;44.500;11.188;2024-01-11T11:18:15;11.70;70.80
32865;DHT22;19219;44.500;11.188;2024-01-11T11:20:42;11.40;72.50
32865;DHT22;19219;44.500;11.188;2024-01-11T11:23:09;11.40;73.70
32865;DHT22;19219;44.500;11.188;2024-01-11T11:25:40;11.70;73.20
32865;DHT22;19219;44.500;11.188;2024-01-11T11:28:06;11.80;72.70
32865;DHT22;19219;44.500;11.188;2024-01-11T11:30:33;12.00;73.40
32865;DHT22;19219;44.500;11.188;2024-01-11T11:33:17;11.70;73.00
32865;DHT22;19219;44.500;11.188;2024-01-11T11:35:43;11.30;73.40
32865;DHT22;19219;44.500;11.188;2024-01-11T11:38:16;11.00;75.00
32865;DHT22;19219;44.500;11.188;2024-01-11T11:40:43;10.70;76.10
32865;DHT22;19219;44.500;11.188;2024-01-11T11:43:11;10.70;77.10
32865;DHT22;19219;44.500;11.188;2024-01-11T11:45:37;9.90;78.00
32865;DHT22;19219;44.500;11.188;2024-01-11T11:51:09;9.90;80.00
32865;DHT22;19219;44.500;11.188;2024-01-11T11:53:36;9.90;79.70
32865;DHT22;19219;44.500;11.188;2024-01-11T11:56:03;9.90;80.50
32865;DHT22;19219;44.500;11.188;2024-01-11T11:58:33;9.70;81.00
32865;DHT22;19219;44.500;11.188;2024-01-11T12:01:00;9.70;81.00
32865;DHT22;19219;44.500;11.188;2024-01-11T12:03:29;9.50;83.20
32865;DHT22;19219;44.500;11.188;2024-01-11T12:06:00;9.40;83.00
32865;DHT22;19219;44.500;11.188;2024-01-11T12:08:26;9.70;84.20
32865;DHT22;19219;44.500;11.188;2024-01-11T12:10:53;9.80;83.90
32865;DHT22;19219;44.500;11.188;2024-01-11T12:13:19;10.00;83.90
32865;DHT22;19219;44.500;11.188;2024-01-11T12:15:46;9.60;84.30
32865;DHT22;19219;44.500;11.188;2024-01-11T12:18:11;9.40;86.90
32865;DHT22;19219;44.500;11.188;2024-01-11T12:20:37;9.40;87.20
32865;DHT22;19219;44.500;11.188;2024-01-11T12:23:03;9.50;86.40
32865;DHT22;19219;44.500;11.188;2024-01-11T12:25:29;9.60;87.70
32865;DHT22;19219;44.500;11.188;2024-01-11T12:27:55;9.40;87.00
32865;DHT22;19219;44.500;11.188;2024-01-11T12:30:25;9.40;87.70
32865;DHT22;19219;44.500;11.188;2024-01-11T12:32:51;9.40;88.80
32865;DHT22;19219;44.500;11.188;2024-01-11T12:35:18;9.30;86.70
32865;DHT22;19219;44.500;11.188;2024-01-11T12:37:58;9.30;88.10
32865;DHT22;19219;44.500;11.188;2024-01-11T12:40:24;9.40;87.80
32865;DHT22;19219;44.500;11.188;2024-01-11T12:42:52;9.30;89.00
32865;DHT22;19219;44.500;11.188;2024-01-11T12:45:19;9.30;89.10
32865;DHT22;19219;44.500;11.188;2024-01-11T12:47:45;9.40;88.20
32865;DHT22;19219;44.500;11.188;2024-01-11T12:50:11;9.20;86.00
32865;DHT22;19219;44.500;11.188;2024-01-11T12:52:38;9.20;87.60
32865;DHT22;19219;44.500;11.188;2024-01-11T12:55:07;9.00;89.70
32865;DHT22;19219;44.500;11.188;2024-01-11T12:57:34;8.90;90.30
32865;DHT22;19219;44.500;11.188;2024-01-11T13:00:12;8.90;90.20
32865;DHT22;19219;44.500;11.188;2024-01-11T13:02:39;8.90;89.80
32865;DHT22;19219;44.500;11.188;2024-01-11T13:05:05;8.90;90.50
32865;DHT22;19219;44.500;11.188;2024-01-11T13:07:32;9.00;90.10
32865;DHT22;19219;44.500;11.188;2024-01-11T13:09:59;8.80;89.70
32865;DHT22;19219;44.500;11.188;2024-01-11T13:12:25;8.70;90.40
32865;DHT22;19219;44.500;11.188;2024-01-11T13:14:51;8.70;90.90
32865;DHT22;19219;44.500;11.188;2024-01-11T13:17:18;8.90;90.50
32865;DHT22;19219;44.500;11.188;2024-01-11T13:19:44;8.80;88.90
32865;DHT22;19219;44.500;11.188;2024-01-11T13:22:10;8.60;88.70
32865;DHT22;19219;44.500;11.188;2024-01-11T13:24:36;8.60;89.60
32865;DHT22;19219;44.500;11.188;2024-01-11T13:27:01;8.70;90.30
32865;DHT22;19219;44.500;11.188;2024-01-11T13:29:27;8.80;90.50
32865;DHT22;19219;44.500;11.188;2024-01-11T13:31:53;8.80;90.30
32865;DHT22;19219;44.500;11.188;2024-01-11T13:34:19;8.90;91.60
32865;DHT22;19219;44.500;11.188;2024-01-11T13:36:45;8.90;90.70
32865;DHT22;19219;44.500;11.188;2024-01-11T13:39:10;8.90;90.50
32865;DHT22;19219;44.500;11.188;2024-01-11T13:41:36;9.00;89.90
32865;DHT22;19219;44.500;11.188;2024-01-11T13:44:02;9.00;88.30
32865;DHT22;19219;44.500;11.188;2024-01-11T13:46:27;8.90;89.30
32865;DHT22;19219;44.500;11.188;2024-01-11T13:48:53;9.00;90.20
32865;DHT22;19219;44.500;11.188;2024-01-11T13:51:19;8.80;90.50
32865;DHT22;19219;44.500;11.188;2024-01-11T13:53:44;8.80;90.70
32865;DHT22;19219;44.500;11.188;2024-01-11T13:56:11;8.90;90.50
32865;DHT22;19219;44.500;11.188;2024-01-11T13:58:37;8.90;90.10
32865;DHT22;19219;44.500;11.188;2024-01-11T14:01:03;9.00;89.60
32865;DHT22;19219;44.500;11.188;2024-01-11T14:03:29;9.00;89.70
32865;DHT22;19219;44.500;11.188;2024-01-11T14:05:55;9.00;89.90
32865;DHT22;19219;44.500;11.188;2024-01-11T14:08:21;9.10;90.30
32865;DHT22;19219;44.500;11.188;2024-01-11T14:10:47;9.00;89.30
32865;DHT22;19219;44.500;11.188;2024-01-11T14:13:12;9.00;88.70
32865;DHT22;19219;44.500;11.188;2024-01-11T14:15:38;8.90;88.80
32865;DHT22;19219;44.500;11.188;2024-01-11T14:18:06;8.90;89.50
32865;DHT22;19219;44.500;11.188;2024-01-11T14:20:33;8.90;90.10
32865;DHT22;19219;44.500;11.188;2024-01-11T14:22:59;8.90;90.70
32865;DHT22;19219;44.500;11.188;2024-01-11T14:25:25;8.90;90.60
32865;DHT22;19219;44.500;11.188;2024-01-11T14:27:51;8.90;90.40
32865;DHT22;19219;44.500;11.188;2024-01-11T14:30:18;8.90;90.40
32865;DHT22;19219;44.500;11.188;2024-01-11T14:32:44;8.80;90.10
32865;DHT22;19219;44.500;11.188;2024-01-11T14:35:10;8.90;90.00
32865;DHT22;19219;44.500;11.188;2024-01-11T14:37:38;8.90;90.30
32865;DHT22;19219;44.500;11.188;2024-01-11T14:40:08;8.70;90.00
32865;DHT22;19219;44.500;11.188;2024-01-11T14:42:37;8.80;89.40
32865;DHT22;19219;44.500;11.188;2024-01-11T14:45:04;8.80;89.90
32865;DHT22;19219;44.500;11.188;2024-01-11T14:47:30;8.70;89.70
32865;DHT22;19219;44.500;11.188;2024-01-11T14:49:59;8.80;90.00
32865;DHT22;19219;44.500;11.188;2024-01-11T14:52:25;8.80;90.30
32865;DHT22;19219;44.500;11.188;2024-01-11T14:54:54;8.80;90.20
32865;DHT22;19219;44.500;11.188;2024-01-11T14:57:19;8.80;90.10
32865;DHT22;19219;44.500;11.188;2024-01-11T14:59:46;8.80;90.20
32865;DHT22;19219;44.500;11.188;2024-01-11T15:02:12;8.70;90.60
32865;DHT22;19219;44.500;11.188;2024-01-11T15:04:38;8.60;90.70
32865;DHT22;19219;44.500;11.188;2024-01-11T15:07:04;8.40;90.80
32865;DHT22;19219;44.500;11.188;2024-01-11T15:09:30;8.40;91.10
32865;DHT22;19219;44.500;11.188;2024-01-11T15:11:55;8.30;91.00
32865;DHT22;19219;44.500;11.188;2024-01-11T15:14:21;8.20;91.30
32865;DHT22;19219;44.500;11.188;2024-01-11T15:16:47;8.20;91.80
32865;DHT22;19219;44.500;11.188;2024-01-11T15:19:13;8.20;91.40
32865;DHT22;19219;44.500;11.188;2024-01-11T15:21:39;8.10;90.90
32865;DHT22;19219;44.500;11.188;2024-01-11T15:24:06;8.00;91.20
32865;DHT22;19219;44.500;11.188;2024-01-11T15:26:32;8.00;91.40
32865;DHT22;19219;44.500;11.188;2024-01-11T15:28:58;8.00;91.60
32865;DHT22;19219;44.500;11.188;2024-01-11T15:31:24;7.90;92.20